Time;durP1;ratioP1;P1;durP2;ratioP2;P2;SDS_P1;SDS_P2;PMS_P1;PMS_P2;Temp;Humidity;BMP_temperature;BMP_pressure;BME280_temperature;BME280_humidity;BME280_pressure;Samples;Min_cycle;Max_cycle;Signal;HPM_P1;HPM_P2
2022/05/20 00:02:05;;;;;;;15.30;13.60;;;13.90;99.90;;;;;;5036944;28;20057;-87
2022/05/20 00:04:31;;;;;;;13.48;12.07;;;13.80;99.90;;;;;;5037743;28;20099;-88
2022/05/20 00:06:57;;;;;;;12.90;11.60;;;13.80;99.90;;;;;;5029978;28;20045;-88
2022/05/20 00:09:22;;;;;;;12.82;11.60;;;13.80;99.90;;;;;;5034127;28;20061;-88
2022/05/20 00:11:48;;;;;;;13.52;12.20;;;13.80;99.90;;;;;;5033544;28;20488;-88
2022/05/20 00:14:14;;;;;;;10.50;9.40;;;13.80;99.90;;;;;;5034101;28;20128;-88
2022/05/20 00:16:39;;;;;;;11.50;9.50;;;13.80;99.90;;;;;;5018568;28;20049;-87
2022/05/20 00:19:05;;;;;;;11.30;10.15;;;13.80;99.90;;;;;;5034157;28;20063;-88
2022/05/20 00:21:32;;;;;;;10.90;9.70;;;13.70;99.90;;;;;;5000395;28;20053;-88
2022/05/20 00:23:57;;;;;;;11.48;10.27;;;13.70;99.90;;;;;;5000311;28;20385;-87
2022/05/20 00:26:24;;;;;;;11.93;9.45;;;13.70;99.90;;;;;;5016210;28;20107;-87
2022/05/20 00:28:49;;;;;;;12.30;10.30;;;13.80;99.90;;;;;;5033058;28;20084;-87
2022/05/20 00:31:16;;;;;;;11.93;9.05;;;13.80;99.90;;;;;;5033424;28;20099;-87
2022/05/20 00:33:41;;;;;;;10.02;7.82;;;13.70;99.90;;;;;;5000550;28;20057;-87
2022/05/20 00:36:07;;;;;;;11.25;8.25;;;13.70;99.90;;;;;;5018628;28;20056;-88
2022/05/20 00:38:33;;;;;;;9.73;7.40;;;13.70;99.90;;;;;;5015269;28;20053;-88
2022/05/20 00:40:59;;;;;;;7.97;6.80;;;13.80;99.90;;;;;;5035929;28;20436;-88
2022/05/20 00:43:24;;;;;;;10.82;6.55;;;13.70;99.90;;;;;;5053144;28;20052;-87
2022/05/20 00:45:51;;;;;;;10.10;6.63;;;13.70;99.90;;;;;;5035827;28;20049;-87
2022/05/20 00:48:16;;;;;;;8.57;7.10;;;13.70;99.90;;;;;;5036333;28;20049;-88
2022/05/20 00:50:48;;;;;;;7.97;6.47;;;13.70;99.90;;;;;;5036369;28;20499;-88
2022/05/20 00:53:14;;;;;;;7.60;6.10;;;13.60;99.90;;;;;;5035866;28;20096;-87
2022/05/20 00:55:40;;;;;;;8.13;5.75;;;13.60;99.90;;;;;;5036010;28;20114;-87
2022/05/20 00:58:08;;;;;;;7.35;5.70;;;13.70;99.90;;;;;;5035109;28;20408;-87
2022/05/20 01:00:36;;;;;;;8.43;6.38;;;13.60;99.90;;;;;;5035911;28;20045;-87
2022/05/20 01:03:03;;;;;;;6.85;5.75;;;13.60;99.90;;;;;;5034849;28;20084;-87
2022/05/20 01:05:37;;;;;;;8.80;6.35;;;13.50;99.90;;;;;;5052751;28;20052;-87
2022/05/20 01:08:03;;;;;;;10.73;6.47;;;13.50;99.90;;;;;;5035759;28;20044;-88
2022/05/20 01:10:29;;;;;;;9.13;6.78;;;13.40;99.90;;;;;;5019658;28;20048;-88
2022/05/20 01:12:55;;;;;;;7.13;5.68;;;13.40;99.90;;;;;;5035355;28;20049;-87
2022/05/20 01:15:20;;;;;;;7.32;5.65;;;13.40;99.90;;;;;;5035754;28;20155;-87
2022/05/20 01:17:47;;;;;;;8.48;6.60;;;13.50;99.90;;;;;;5035639;28;20057;-87
2022/05/20 01:20:16;;;;;;;9.82;6.07;;;13.50;99.90;;;;;;5035224;28;20121;-88
2022/05/20 01:22:54;;;;;;;8.60;5.80;;;13.50;99.90;;;;;;5051965;28;20371;-88
2022/05/20 01:25:23;;;;;;;6.63;5.80;;;13.40;99.90;;;;;;5052476;28;20114;-87
2022/05/20 01:27:49;;;;;;;7.80;6.13;;;13.40;99.90;;;;;;5035478;28;20052;-87
2022/05/20 01:30:16;;;;;;;9.95;5.95;;;13.40;99.90;;;;;;5051819;28;20037;-86
2022/05/20 01:32:42;;;;;;;8.63;6.57;;;13.40;99.90;;;;;;5051840;28;20126;-86
2022/05/20 01:35:11;;;;;;;9.90;6.10;;;13.30;99.90;;;;;;5035026;28;20049;-86
2022/05/20 01:37:36;;;;;;;8.65;6.40;;;13.30;99.90;;;;;;5035201;28;20389;-86
2022/05/20 01:40:02;;;;;;;7.95;6.35;;;13.30;99.90;;;;;;5035165;28;20055;-86
2022/05/20 01:42:49;;;;;;;7.38;6.03;;;13.20;99.90;;;;;;5035278;28;20053;-86
2022/05/20 01:45:16;;;;;;;11.52;6.65;;;13.10;99.90;;;;;;5018351;28;20057;-86
2022/05/20 01:47:55;;;;;;;11.00;7.00;;;13.10;99.90;;;;;;5034659;28;20068;-86
2022/05/20 01:50:37;;;;;;;8.68;7.22;;;13.10;99.90;;;;;;5034871;28;20053;-86
2022/05/20 01:53:11;;;;;;;11.07;7.55;;;13.00;99.90;;;;;;5034889;28;20092;-86
2022/05/20 01:55:44;;;;;;;10.68;7.88;;;14.10;99.90;;;;;;5034884;28;20076;-86
2022/05/20 01:58:17;;;;;;;10.47;8.20;;;12.90;99.90;;;;;;5051221;28;20049;-86
2022/05/20 02:00:43;;;;;;;9.18;7.60;;;12.80;99.90;;;;;;5034940;28;20060;-87
2022/05/20 02:03:21;;;;;;;10.52;8.15;;;12.80;99.90;;;;;;5017917;28;20393;-87
2022/05/20 02:06:06;;;;;;;10.70;8.23;;;12.70;99.90;;;;;;5035673;28;20048;-86
2022/05/20 02:08:47;;;;;;;9.35;8.45;;;12.70;99.90;;;;;;5034478;28;20053;-86
2022/05/20 02:11:38;;;;;;;11.52;8.57;;;12.70;99.90;;;;;;5034037;28;20057;-87
2022/05/20 02:14:29;;;;;;;11.73;8.35;;;12.60;99.90;;;;;;5032634;28;20535;-86
2022/05/20 02:17:01;;;;;;;9.88;8.70;;;12.50;99.90;;;;;;5020235;28;20071;-86
2022/05/20 02:19:38;;;;;;;11.50;8.18;;;12.50;99.90;;;;;;5019744;28;20052;-86
2022/05/20 02:22:12;;;;;;;12.73;9.18;;;12.50;99.90;;;;;;5049389;28;20053;-86
2022/05/20 02:24:39;;;;;;;14.35;9.10;;;12.50;99.90;;;;;;5051472;28;20052;-87
2022/05/20 02:27:07;;;;;;;11.43;9.05;;;12.50;99.90;;;;;;5036551;28;20049;-86
2022/05/20 02:29:38;;;;;;;12.95;9.55;;;12.50;99.90;;;;;;5033233;28;20044;-86
2022/05/20 02:32:14;;;;;;;14.73;9.40;;;12.50;99.90;;;;;;5049390;28;20109;-86
2022/05/20 02:34:40;;;;;;;11.73;8.55;;;12.50;99.90;;;;;;5036457;28;20052;-87
2022/05/20 02:37:28;;;;;;;11.02;8.90;;;12.50;99.90;;;;;;5019048;28;20048;-86
2022/05/20 02:39:54;;;;;;;13.55;9.52;;;12.40;99.90;;;;;;5035759;28;20048;-86
2022/05/20 02:42:19;;;;;;;12.90;10.60;;;12.40;99.90;;;;;;5051752;28;20109;-87
2022/05/20 02:44:45;;;;;;;14.20;10.15;;;12.40;99.90;;;;;;5020547;28;20485;-87
2022/05/20 02:47:11;;;;;;;16.25;10.82;;;12.40;99.90;;;;;;5051062;28;20041;-86
2022/05/20 02:49:37;;;;;;;13.68;11.27;;;12.40;99.90;;;;;;5035106;28;20045;-87
2022/05/20 02:52:03;;;;;;;12.70;11.38;;;12.40;99.90;;;;;;5034891;28;20053;-87
2022/05/20 02:54:29;;;;;;;17.60;11.50;;;12.30;99.90;;;;;;5034621;28;20045;-87
2022/05/20 02:56:55;;;;;;;16.05;12.93;;;12.30;99.90;;;;;;5034591;28;20053;-87
2022/05/20 03:04:48;;;;;;;18.65;14.07;;;12.20;99.90;;;;;;5050206;28;20122;-86
2022/05/20 03:07:14;;;;;;;16.92;15.13;;;12.20;99.90;;;;;;5033558;28;20469;-86
2022/05/20 03:09:40;;;;;;;21.60;16.02;;;12.20;99.90;;;;;;5033728;28;20053;-86
2022/05/20 03:12:06;;;;;;;22.63;15.43;;;12.20;99.90;;;;;;5033634;28;20048;-87
2022/05/20 03:14:32;;;;;;;18.65;16.13;;;12.20;99.90;;;;;;5050021;28;20127;-86
2022/05/20 03:17:01;;;;;;;20.55;16.08;;;12.10;99.90;;;;;;5033601;28;20080;-86
2022/05/20 03:19:30;;;;;;;23.48;15.60;;;12.10;99.90;;;;;;5033365;28;20065;-86
2022/05/20 03:21:59;;;;;;;21.02;15.80;;;12.10;99.90;;;;;;5033775;28;20397;-87
2022/05/20 03:24:26;;;;;;;22.00;16.65;;;12.00;99.90;;;;;;5033266;28;20049;-86
2022/05/20 03:26:51;;;;;;;20.60;15.82;;;11.90;99.90;;;;;;5032709;28;20103;-86
2022/05/20 03:29:17;;;;;;;21.98;17.25;;;11.90;99.90;;;;;;5033172;28;20045;-86
2022/05/20 03:31:43;;;;;;;22.05;16.83;;;11.90;99.90;;;;;;5050168;28;20055;-86
2022/05/20 03:34:09;;;;;;;24.73;18.20;;;11.80;99.90;;;;;;5033610;28;20131;-86
2022/05/20 03:36:37;;;;;;;20.65;18.30;;;11.80;99.90;;;;;;5032804;28;20053;-86
2022/05/20 03:39:03;;;;;;;21.98;18.38;;;11.70;99.90;;;;;;5033614;28;20103;-86
2022/05/20 03:41:29;;;;;;;19.95;16.92;;;11.70;99.90;;;;;;5033323;28;20052;-86
2022/05/20 03:43:55;;;;;;;19.73;17.50;;;11.70;99.90;;;;;;5050156;28;20106;-86
2022/05/20 03:46:20;;;;;;;22.55;17.23;;;11.70;99.90;;;;;;5033390;28;20052;-86
2022/05/20 03:48:46;;;;;;;19.95;16.08;;;11.60;99.90;;;;;;5033459;28;20055;-86
2022/05/20 03:51:13;;;;;;;18.65;16.65;;;11.60;99.90;;;;;;5033335;28;20053;-86
2022/05/20 03:53:38;;;;;;;19.02;16.88;;;11.60;99.90;;;;;;5032926;28;20140;-86
2022/05/20 03:56:04;;;;;;;19.20;17.30;;;11.60;99.90;;;;;;5033088;28;20135;-86
2022/05/20 03:58:30;;;;;;;24.20;17.92;;;11.50;99.90;;;;;;5049120;28;20109;-86
2022/05/20 04:03:44;;;;;;;21.90;18.95;;;11.50;99.90;;;;;;5035426;28;20056;-86
2022/05/20 04:06:09;;;;;;;24.20;19.20;;;11.50;99.90;;;;;;5032911;28;20049;-86
2022/05/20 04:08:35;;;;;;;25.98;19.83;;;11.60;99.90;;;;;;5032016;28;20071;-86
2022/05/20 04:11:02;;;;;;;24.40;21.50;;;11.60;99.90;;;;;;5049988;28;20135;-86
2022/05/20 04:13:28;;;;;;;25.90;20.80;;;11.70;99.90;;;;;;5032909;28;20115;-86
2022/05/20 04:15:54;;;;;;;27.80;21.80;;;11.80;99.90;;;;;;5049878;28;20536;-85
2022/05/20 04:18:20;;;;;;;25.42;20.60;;;11.80;99.90;;;;;;5032435;28;20052;-86
2022/05/20 04:20:46;;;;;;;24.27;20.75;;;12.00;99.90;;;;;;5034284;28;20095;-86
2022/05/20 04:23:14;;;;;;;24.50;21.13;;;12.00;99.90;;;;;;5034516;28;20504;-86
2022/05/20 04:25:39;;;;;;;28.55;20.45;;;12.10;99.90;;;;;;5050969;28;20401;-86
2022/05/20 04:28:05;;;;;;;25.05;20.02;;;12.20;99.90;;;;;;5035293;28;20045;-86
2022/05/20 04:30:31;;;;;;;25.98;20.05;;;12.30;99.90;;;;;;5051799;28;20049;-86
2022/05/20 04:32:56;;;;;;;25.45;20.38;;;12.40;99.90;;;;;;5034535;28;20059;-86
2022/05/20 04:35:24;;;;;;;25.40;20.92;;;12.60;99.90;;;;;;5033112;28;20127;-86
2022/05/20 04:37:50;;;;;;;22.98;19.02;;;12.60;99.90;;;;;;5035539;28;20088;-86
2022/05/20 04:40:16;;;;;;;26.10;20.08;;;12.70;99.90;;;;;;5036638;28;20088;-86
2022/05/20 04:48:09;;;;;;;28.08;22.17;;;12.70;99.90;;;;;;5052399;28;20056;-86
2022/05/20 04:50:35;;;;;;;29.05;20.65;;;12.70;99.90;;;;;;5051950;28;20094;-85
2022/05/20 04:53:01;;;;;;;29.50;21.23;;;12.70;99.90;;;;;;5036298;28;20053;-86
2022/05/20 04:55:27;;;;;;;27.70;21.27;;;12.60;99.90;;;;;;5035645;28;20047;-86
2022/05/20 04:57:53;;;;;;;28.25;21.80;;;12.50;99.90;;;;;;5033262;28;20055;-86
2022/05/20 05:00:23;;;;;;;33.85;22.45;;;12.60;99.90;;;;;;5042161;28;20119;-86
2022/05/20 05:02:49;;;;;;;30.25;21.92;;;12.40;99.90;;;;;;5032463;28;20397;-85
2022/05/20 05:05:19;;;;;;;29.25;21.20;;;12.70;99.90;;;;;;5032331;28;20049;-85
2022/05/20 05:07:47;;;;;;;23.42;19.05;;;13.40;99.90;;;;;;5015341;28;20057;-86
2022/05/20 05:10:14;;;;;;;21.77;17.45;;;14.40;99.90;;;;;;4999821;28;20057;-86
2022/05/20 05:12:40;;;;;;;19.00;15.60;;;15.40;99.90;;;;;;5015470;28;20103;-86
2022/05/20 05:15:06;;;;;;;20.02;14.98;;;16.10;99.90;;;;;;5015733;28;20045;-86
2022/05/20 05:20:22;;;;;;;16.35;13.95;;;17.00;99.90;;;;;;5018472;28;20099;-86
2022/05/20 05:22:54;;;;;;;16.65;13.88;;;18.00;99.90;;;;;;5016216;28;20068;-86
2022/05/20 05:25:22;;;;;;;17.20;12.88;;;18.30;99.90;;;;;;5018380;28;20111;-86
2022/05/20 05:27:48;;;;;;;14.52;12.32;;;18.30;99.90;;;;;;5035332;28;20041;-86
2022/05/20 05:30:14;;;;;;;16.55;12.40;;;18.90;99.90;;;;;;5042189;28;20137;-86
2022/05/20 05:32:40;;;;;;;13.00;11.57;;;18.90;99.90;;;;;;5016376;28;20037;-86
2022/05/20 05:35:07;;;;;;;16.58;12.40;;;18.80;99.90;;;;;;5051392;28;20057;-86
2022/05/20 05:37:37;;;;;;;12.65;11.35;;;19.50;99.90;;;;;;5021966;28;20536;-86
2022/05/20 05:40:03;;;;;;;14.55;10.77;;;19.30;99.90;;;;;;5016324;28;20045;-86
2022/05/20 05:42:30;;;;;;;16.48;10.82;;;19.40;99.90;;;;;;5015297;28;20054;-86
2022/05/20 05:44:56;;;;;;;14.43;10.60;;;19.00;99.90;;;;;;5016375;28;20386;-86
2022/05/20 05:47:22;;;;;;;13.77;9.70;;;19.20;99.90;;;;;;5032493;28;20041;-86
2022/05/20 05:49:47;;;;;;;12.60;10.18;;;19.50;99.90;;;;;;5031566;28;20061;-86
2022/05/20 05:52:13;;;;;;;15.02;10.50;;;19.70;99.90;;;;;;5015907;28;20490;-85
2022/05/20 05:54:39;;;;;;;11.35;8.50;;;19.90;99.90;;;;;;5015380;28;20054;-86
2022/05/20 05:57:04;;;;;;;12.88;9.43;;;20.00;99.90;;;;;;5033728;28;20081;-85
2022/05/20 05:59:31;;;;;;;13.95;9.50;;;20.00;99.90;;;;;;5050712;28;20056;-86
2022/05/20 06:01:58;;;;;;;10.38;8.65;;;19.60;99.90;;;;;;5035167;28;20527;-85
2022/05/20 06:04:24;;;;;;;8.20;7.47;;;19.60;99.90;;;;;;5052509;28;20064;-86
2022/05/20 06:06:50;;;;;;;11.18;7.95;;;19.60;99.90;;;;;;5050941;28;20086;-86
2022/05/20 06:09:16;;;;;;;10.52;7.50;;;19.30;99.90;;;;;;5051288;28;20041;-87
2022/05/20 06:11:41;;;;;;;8.38;7.10;;;19.60;99.90;;;;;;5034078;28;20045;-86
2022/05/20 06:14:07;;;;;;;12.68;8.35;;;18.90;99.90;;;;;;5035017;28;20140;-86
2022/05/20 06:16:33;;;;;;;11.10;7.65;;;18.80;99.90;;;;;;5034625;28;20088;-86
2022/05/20 06:18:59;;;;;;;10.60;8.10;;;19.50;99.90;;;;;;5034649;28;20061;-86
2022/05/20 06:21:26;;;;;;;11.45;7.13;;;19.50;99.90;;;;;;5052408;28;20076;-86
2022/05/20 06:23:52;;;;;;;10.07;6.30;;;20.40;99.90;;;;;;5034643;28;20436;-86
2022/05/20 06:26:18;;;;;;;10.52;7.00;;;20.40;99.90;;;;;;5051329;28;20053;-86
2022/05/20 06:28:44;;;;;;;8.43;6.75;;;19.50;99.90;;;;;;5017792;28;20064;-86
2022/05/20 06:31:10;;;;;;;10.48;7.32;;;19.50;99.90;;;;;;5018261;28;20052;-86
2022/05/20 06:33:36;;;;;;;9.90;7.30;;;19.30;99.90;;;;;;5050784;28;20044;-86
2022/05/20 06:41:30;;;;;;;10.88;7.35;;;20.00;99.90;;;;;;5037635;28;20064;-87
2022/05/20 06:43:55;;;;;;;10.70;7.40;;;21.00;99.90;;;;;;5052521;28;20045;-90
2022/05/20 06:46:21;;;;;;;8.60;5.93;;;21.20;99.90;;;;;;5035624;28;20140;-88
2022/05/20 06:48:55;;;;;;;7.50;5.60;;;22.20;99.90;;;;;;5036406;28;20045;-90
2022/05/20 06:51:23;;;;;;;8.82;4.90;;;22.60;99.90;;;;;;5042034;28;20052;-92
2022/05/20 06:53:51;;;;;;;7.63;5.00;;;21.90;99.90;;;;;;5034206;28;20570;-89
2022/05/20 06:56:17;;;;;;;10.68;6.35;;;21.90;99.90;;;;;;5050171;28;20120;-92
2022/05/20 06:58:43;;;;;;;9.45;6.82;;;21.00;99.90;;;;;;5034928;28;20068;-90
2022/05/20 07:01:08;;;;;;;9.90;6.47;;;20.80;99.90;;;;;;5042826;28;20045;-88
2022/05/20 07:03:34;;;;;;;8.45;6.10;;;20.30;99.90;;;;;;5049827;28;20060;-90
2022/05/20 07:06:01;;;;;;;7.10;5.88;;;20.10;99.90;;;;;;5057532;28;20056;-91
2022/05/20 07:08:27;;;;;;;7.68;5.68;;;20.20;99.90;;;;;;5025609;28;20044;-91
2022/05/20 07:10:52;;;;;;;10.27;6.40;;;20.40;99.90;;;;;;5045252;28;20304;-90
2022/05/20 07:13:18;;;;;;;9.15;6.43;;;20.90;99.90;;;;;;5058534;28;20052;-89
2022/05/20 07:15:44;;;;;;;8.00;6.50;;;20.00;99.90;;;;;;5055365;28;20132;-90
2022/05/20 07:18:09;;;;;;;9.60;6.68;;;20.10;99.90;;;;;;5049675;28;20076;-90
2022/05/20 07:20:35;;;;;;;9.75;6.30;;;20.10;99.90;;;;;;5049579;28;20061;-90
2022/05/20 07:23:01;;;;;;;6.35;5.75;;;19.90;99.90;;;;;;5049085;28;20063;-89
2022/05/20 07:25:26;;;;;;;10.13;5.90;;;20.00;99.90;;;;;;5049680;28;20041;-89
2022/05/20 07:27:52;;;;;;;9.50;5.60;;;20.00;99.90;;;;;;5031062;28;20037;-91
2022/05/20 07:30:18;;;;;;;8.07;5.43;;;20.60;99.90;;;;;;5033581;28;20049;-90
2022/05/20 07:32:43;;;;;;;9.35;5.00;;;20.60;99.90;;;;;;5032853;28;20080;-90
2022/05/20 07:35:09;;;;;;;7.20;4.40;;;20.50;99.90;;;;;;5047815;28;20090;-90
2022/05/20 07:37:35;;;;;;;7.93;4.40;;;20.00;99.90;;;;;;5049022;28;20176;-89
2022/05/20 07:40:01;;;;;;;7.90;4.65;;;20.00;99.90;;;;;;5032460;28;20049;-90
2022/05/20 07:42:27;;;;;;;8.15;4.60;;;19.70;99.90;;;;;;5032170;28;20132;-90
2022/05/20 07:44:52;;;;;;;7.93;4.38;;;19.60;99.90;;;;;;5018816;28;20285;-91
2022/05/20 07:47:19;;;;;;;5.80;3.83;;;19.70;99.90;;;;;;5053144;28;20094;-89
2022/05/20 07:49:45;;;;;;;8.60;4.22;;;19.80;99.90;;;;;;5038587;28;20109;-90
2022/05/20 07:52:11;;;;;;;6.13;4.00;;;20.50;99.90;;;;;;5035318;28;20460;-89
2022/05/20 07:54:41;;;;;;;8.75;4.47;;;20.70;99.90;;;;;;5038924;28;20061;-92
2022/05/20 07:57:12;;;;;;;5.40;3.63;;;21.20;99.90;;;;;;5022563;28;20111;-90
2022/05/20 07:59:40;;;;;;;6.28;4.20;;;21.40;99.90;;;;;;5040611;28;20107;-91
2022/05/20 08:02:07;;;;;;;5.38;3.28;;;21.80;99.90;;;;;;5022989;28;20049;-91
2022/05/20 08:05:00;;;;;;;8.00;3.80;;;23.30;99.90;;;;;;5044359;28;20088;-91
2022/05/20 08:07:34;;;;;;;9.43;3.90;;;22.50;99.90;;;;;;5045185;28;20395;-91
2022/05/20 08:10:00;;;;;;;5.80;3.70;;;22.00;99.90;;;;;;5038975;28;20489;-91
2022/05/20 08:12:26;;;;;;;6.60;3.92;;;22.30;99.90;;;;;;5038328;28;20053;-89
2022/05/20 08:14:52;;;;;;;7.78;4.00;;;22.50;99.90;;;;;;5022854;28;20060;-91
2022/05/20 08:17:20;;;;;;;6.38;3.50;;;22.00;99.90;;;;;;5040190;28;20057;-89
2022/05/20 08:19:46;;;;;;;9.75;4.72;;;21.90;99.90;;;;;;5022318;28;20503;-86
2022/05/20 08:22:11;;;;;;;8.95;4.53;;;21.10;99.90;;;;;;5036918;28;20051;-90
2022/05/20 08:24:37;;;;;;;7.35;4.13;;;20.30;99.90;;;;;;5038456;28;20057;-91
2022/05/20 08:27:03;;;;;;;7.22;4.15;;;20.70;99.90;;;;;;5061243;28;20091;-92
2022/05/20 08:29:32;;;;;;;7.05;4.70;;;20.40;99.90;;;;;;5067304;28;20048;-91
2022/05/20 08:31:58;;;;;;;5.90;4.28;;;20.30;99.90;;;;;;5073205;28;20036;-89
2022/05/20 08:34:24;;;;;;;7.18;4.85;;;20.50;99.90;;;;;;5069280;28;20036;-89
2022/05/20 08:36:49;;;;;;;6.28;4.45;;;20.80;99.90;;;;;;5041328;28;20059;-89
2022/05/20 08:39:15;;;;;;;8.20;4.53;;;21.10;99.90;;;;;;5054082;28;20052;-87
2022/05/20 08:41:47;;;;;;;5.63;3.80;;;20.70;99.90;;;;;;5061050;28;20131;-90
2022/05/20 08:44:14;;;;;;;6.40;4.00;;;20.10;99.90;;;;;;5038680;28;20124;-89
2022/05/20 08:46:40;;;;;;;7.15;4.68;;;20.40;99.90;;;;;;5022284;28;20041;-90
2022/05/20 08:49:12;;;;;;;7.07;4.72;;;20.30;99.90;;;;;;5039500;28;20443;-91
2022/05/20 08:51:39;;;;;;;8.10;4.85;;;19.90;99.90;;;;;;5059790;28;20049;-90
2022/05/20 08:54:05;;;;;;;11.07;5.30;;;20.30;99.90;;;;;;5040377;28;20040;-88
2022/05/20 08:56:31;;;;;;;8.32;4.97;;;20.60;99.90;;;;;;5040753;28;20048;-90
2022/05/20 08:59:05;;;;;;;9.48;5.40;;;21.10;99.90;;;;;;5056803;28;20051;-89
2022/05/20 09:01:37;;;;;;;7.47;4.80;;;21.40;99.90;;;;;;5039871;28;20080;-90
2022/05/20 09:04:08;;;;;;;9.32;5.32;;;22.10;99.90;;;;;;5066367;28;20124;-92
2022/05/20 09:06:38;;;;;;;8.18;5.65;;;21.90;99.90;;;;;;5038483;28;20068;-90
2022/05/20 09:09:12;;;;;;;9.75;6.90;;;21.70;99.90;;;;;;5049998;28;20088;-92
2022/05/20 09:11:39;;;;;;;10.60;5.90;;;21.50;99.90;;;;;;5036657;28;20044;-90
2022/05/20 09:17:18;;;;;;;7.85;4.97;;;20.00;99.90;;;;;;5040173;28;20089;-88
2022/05/20 09:19:53;;;;;;;7.07;5.00;;;20.50;99.90;;;;;;5037102;28;20063;-86
2022/05/20 09:22:25;;;;;;;7.10;5.63;;;21.30;99.90;;;;;;5036943;28;20147;-88
2022/05/20 09:24:50;;;;;;;7.40;6.50;;;21.40;99.90;;;;;;5039016;28;20049;-86
2022/05/20 09:27:27;;;;;;;6.47;4.57;;;21.80;99.90;;;;;;5048401;28;20048;-90
2022/05/20 09:30:23;;;;;;;6.88;5.30;;;22.90;99.90;;;;;;5076693;28;20110;-86
2022/05/20 09:33:00;;;;;;;7.95;4.53;;;21.90;99.90;;;;;;5015215;28;20069;-91
2022/05/20 09:35:31;;;;;;;10.48;6.80;;;22.30;99.90;;;;;;5036274;28;20041;-90
2022/05/20 09:37:56;;;;;;;8.70;5.78;;;21.90;99.90;;;;;;5017997;28;20085;-88
2022/05/20 09:40:33;;;;;;;8.13;6.80;;;21.90;99.90;;;;;;5016627;28;20464;-90
2022/05/20 09:43:02;;;;;;;8.43;6.80;;;22.60;99.90;;;;;;5016677;28;20056;-90
2022/05/20 09:45:28;;;;;;;6.88;6.18;;;22.00;99.90;;;;;;5051580;28;20044;-89
2022/05/20 09:47:56;;;;;;;8.90;7.97;;;22.70;99.90;;;;;;5032477;28;20103;-88
2022/05/20 09:50:35;;;;;;;9.10;7.32;;;22.50;99.90;;;;;;5033752;28;20374;-89
2022/05/20 09:53:02;;;;;;;7.38;5.55;;;22.60;99.90;;;;;;5033181;28;20061;-89
2022/05/20 09:55:41;;;;;;;7.85;5.47;;;22.50;99.90;;;;;;5033913;28;20044;-89
2022/05/20 09:58:19;;;;;;;6.05;5.07;;;21.80;99.90;;;;;;5033870;28;20080;-88
2022/05/20 10:00:53;;;;;;;6.88;6.28;;;21.70;99.90;;;;;;5034983;28;20553;-88
2022/05/20 10:03:38;;;;;;;8.40;7.47;;;22.10;99.90;;;;;;5034292;28;20495;-87
2022/05/20 10:06:43;;;;;;;8.45;6.57;;;21.60;99.90;;;;;;5034277;28;20528;-87
2022/05/20 10:09:23;;;;;;;9.55;7.15;;;21.10;99.90;;;;;;5052511;28;20045;-86
2022/05/20 10:11:51;;;;;;;8.10;7.30;;;21.00;99.90;;;;;;5037108;28;20052;-87
2022/05/20 10:14:20;;;;;;;8.30;6.70;;;21.10;99.90;;;;;;5036481;28;20045;-90
2022/05/20 10:16:59;;;;;;;8.35;6.60;;;21.70;99.90;;;;;;5049996;28;20049;-84
2022/05/20 10:19:48;;;;;;;7.63;6.40;;;21.10;99.90;;;;;;5049837;28;20244;-83
2022/05/20 10:22:24;;;;;;;7.82;6.75;;;21.00;99.90;;;;;;5049647;28;20052;-82
2022/05/20 10:24:53;;;;;;;7.40;6.10;;;20.80;99.90;;;;;;5049809;28;20056;-83
2022/05/20 10:27:25;;;;;;;8.93;6.38;;;20.80;99.90;;;;;;5033310;28;20044;-83
2022/05/20 10:32:59;;;;;;;7.03;5.35;;;21.20;99.90;;;;;;5050403;28;20118;-83
2022/05/20 10:35:27;;;;;;;5.53;4.45;;;21.20;99.90;;;;;;5052452;28;20213;-82
2022/05/20 10:38:14;;;;;;;4.85;4.25;;;21.00;99.90;;;;;;5052326;28;20057;-84
2022/05/20 10:40:46;;;;;;;6.93;4.97;;;21.20;99.90;;;;;;5037127;28;20111;-83
2022/05/20 10:49:39;;;;;;;8.05;5.00;;;21.20;99.90;;;;;;5050907;28;20516;-84
2022/05/20 10:52:12;;;;;;;6.97;5.18;;;21.50;99.90;;;;;;5034890;28;20049;-82
2022/05/20 10:54:56;;;;;;;6.55;5.28;;;21.70;99.90;;;;;;5048633;28;20045;-82
2022/05/20 10:57:30;;;;;;;;;;;20.90;99.90;;;;;;5038474;28;20084;-91
2022/05/20 11:00:05;;;;;;;9.95;4.25;;;21.20;99.90;;;;;;5036649;28;19929;-91
2022/05/20 11:02:50;;;;;;;6.05;4.43;;;21.30;99.90;;;;;;5030983;28;20064;-94
2022/05/20 11:05:37;;;;;;;7.10;4.57;;;21.80;99.90;;;;;;5022766;28;20105;-92
2022/05/20 11:08:12;;;;;;;6.18;4.68;;;22.00;99.90;;;;;;5036932;28;20051;-92
2022/05/20 11:10:55;;;;;;;5.30;4.80;;;22.30;99.90;;;;;;5053654;28;20049;-92
2022/05/20 11:13:58;;;;;;;;;;;22.00;99.90;;;;;;5058113;28;20059;-92
2022/05/20 11:17:04;;;;;;;5.93;4.53;;;21.70;99.90;;;;;;4997704;28;19925;-87
2022/05/20 11:20:05;;;;;;;5.47;4.93;;;21.90;99.90;;;;;;4988887;28;20084;-91
2022/05/20 11:22:53;;;;;;;6.25;5.55;;;22.10;99.90;;;;;;5037995;28;20048;-90
2022/05/20 11:25:47;;;;;;;5.05;4.65;;;22.00;99.90;;;;;;5044719;28;20056;-92
2022/05/20 11:28:38;;;;;;;6.18;4.93;;;22.00;99.90;;;;;;5032394;28;20180;-89
2022/05/20 11:31:22;;;;;;;4.45;4.05;;;21.50;99.90;;;;;;5067267;28;20045;-92
2022/05/20 11:34:13;;;;;;;5.55;4.22;;;21.60;99.90;;;;;;5072908;28;20088;-85
2022/05/20 11:36:49;;;;;;;4.65;4.13;;;21.50;99.90;;;;;;5055057;28;20045;-86
2022/05/20 11:39:37;;;;;;;6.63;5.35;;;21.80;99.90;;;;;;5073670;28;20108;-87
2022/05/20 11:42:10;;;;;;;6.95;6.25;;;21.90;99.90;;;;;;5051668;28;20084;-84
2022/05/20 11:45:10;;;;;;;6.97;6.00;;;22.20;99.90;;;;;;5055773;28;20072;-85
2022/05/20 11:47:55;;;;;;;5.97;5.10;;;22.00;99.90;;;;;;5068222;28;20045;-86
2022/05/20 11:50:27;;;;;;;8.15;5.10;;;21.70;99.90;;;;;;5063424;28;20037;-89
2022/05/20 11:53:04;;;;;;;6.63;5.50;;;21.60;99.90;;;;;;5061811;28;20066;-88
2022/05/20 11:55:40;;;;;;;5.22;4.55;;;21.40;99.90;;;;;;5062895;28;20041;-90
2022/05/20 11:58:07;;;;;;;5.60;3.63;;;21.80;99.90;;;;;;5068723;28;20040;-89
2022/05/20 12:00:37;;;;;;;4.40;3.40;;;21.30;99.90;;;;;;5032428;28;20143;-88
2022/05/20 12:03:09;;;;;;;2.90;2.17;;;21.10;99.60;;;;;;5053733;28;20072;-88
2022/05/20 12:05:37;;;;;;;3.83;2.90;;;21.40;98.30;;;;;;5051762;28;20053;-92
2022/05/20 12:08:03;;;;;;;3.70;2.58;;;21.20;99.50;;;;;;5032835;28;20109;-89
2022/05/20 12:10:41;;;;;;;3.95;2.20;;;21.40;99.70;;;;;;5029651;28;20100;-94
2022/05/20 12:13:07;;;;;;;4.90;2.78;;;21.50;99.10;;;;;;5057385;28;20120;-93
2022/05/20 12:15:37;;;;;;;7.80;3.30;;;21.30;99.90;;;;;;5061096;28;20065;-93
2022/05/20 12:24:12;;;;;;;3.53;2.72;;;21.70;99.90;;;;;;5039125;28;20067;-89
2022/05/20 12:24:14;;;;;;;4.95;3.33;;;21.90;99.90;;;;;;5038179;28;20052;-94
2022/05/20 12:26:40;;;;;;;8.82;5.90;;;21.80;99.90;;;;;;5018619;28;20049;-94
2022/05/20 12:29:34;;;;;;;6.65;5.95;;;21.60;99.90;;;;;;5048686;28;20064;-91
2022/05/20 12:32:00;;;;;;;7.38;6.60;;;21.90;99.90;;;;;;5049317;28;20155;-92
2022/05/20 12:34:39;;;;;;;7.93;6.38;;;21.90;99.90;;;;;;5007887;28;20065;-91
2022/05/20 12:37:05;;;;;;;6.63;5.97;;;22.10;99.90;;;;;;5056566;28;20115;-92
2022/05/20 12:39:51;;;;;;;6.30;5.65;;;22.20;99.90;;;;;;5037943;28;20109;-93
2022/05/20 12:42:24;;;;;;;8.20;7.38;;;22.10;99.90;;;;;;5023778;28;20041;-96
2022/05/20 12:44:50;;;;;;;6.88;6.18;;;22.40;99.90;;;;;;5008003;28;20057;-92
2022/05/20 12:47:24;;;;;;;8.95;6.97;;;22.60;99.90;;;;;;5056868;28;20037;-92
2022/05/20 12:49:49;;;;;;;8.40;6.25;;;22.20;99.90;;;;;;5038532;28;20052;-93
2022/05/20 12:52:18;;;;;;;5.88;5.28;;;22.10;99.90;;;;;;5037549;28;20191;-93
2022/05/20 12:54:46;;;;;;;8.15;7.18;;;22.00;99.90;;;;;;5059938;28;20048;-91
2022/05/20 12:57:26;;;;;;;9.65;7.18;;;21.50;99.90;;;;;;5023402;28;20140;-96
2022/05/20 13:00:01;;;;;;;8.68;7.85;;;21.30;99.90;;;;;;5037054;28;20102;-91
2022/05/20 13:02:38;;;;;;;9.18;8.27;;;21.10;99.90;;;;;;5023775;28;20440;-93
2022/05/20 13:05:18;;;;;;;11.70;9.23;;;21.30;99.90;;;;;;5040043;28;20047;-91
2022/05/20 13:07:44;;;;;;;10.18;9.27;;;21.30;99.90;;;;;;5052510;28;20046;-93
2022/05/20 13:10:30;;;;;;;10.50;9.50;;;21.00;99.90;;;;;;5025047;28;20087;-92
2022/05/20 13:13:12;;;;;;;11.80;10.20;;;21.00;99.90;;;;;;4986352;28;20053;-92
2022/05/20 13:15:59;;;;;;;14.77;11.30;;;21.00;99.90;;;;;;5016898;28;20057;-93
2022/05/20 13:18:29;;;;;;;12.65;11.35;;;21.10;99.90;;;;;;5033358;28;20057;-93
2022/05/20 13:21:02;;;;;;;12.65;11.45;;;20.90;99.90;;;;;;5028734;28;20059;-91
2022/05/20 13:23:29;;;;;;;12.32;10.65;;;20.90;99.90;;;;;;5054326;28;20063;-88
2022/05/20 13:25:55;;;;;;;11.60;10.40;;;20.90;99.90;;;;;;5053924;28;20064;-85
2022/05/20 13:28:29;;;;;;;11.10;10.00;;;21.00;99.90;;;;;;5040169;28;20128;-89
2022/05/20 13:31:03;;;;;;;13.20;11.85;;;20.70;99.90;;;;;;5033316;28;20045;-87
2022/05/20 13:33:29;;;;;;;12.43;11.13;;;20.40;99.90;;;;;;5016183;28;20057;-88
2022/05/20 13:35:55;;;;;;;12.27;11.07;;;20.40;99.90;;;;;;5037167;28;20115;-88